Time;durP1;ratioP1;P1;durP2;ratioP2;P2;SDS_P1;SDS_P2;PMS_P1;PMS_P2;Temp;Humidity;BMP_temperature;BMP_pressure;BME280_temperature;BME280_humidity;BME280_pressure;Samples;Min_cycle;Max_cycle;Signal;HPM_P1;HPM_P2
2022/07/31 00:01:26;;;;;;;4.23;2.00;;;;;;;-145.69;100.00;71541.69;5072875;28;20214;-79
2022/07/31 00:03:52;;;;;;;3.80;2.20;;;;;;;-145.69;100.00;71485.97;5071752;28;20589;-78
2022/07/31 00:06:19;;;;;;;6.88;2.08;;;;;;;-145.69;100.00;71483.97;5071806;28;20201;-79
2022/07/31 00:08:46;;;;;;;5.03;2.10;;;;;;;-145.69;100.00;71476.03;5071221;28;20829;-79
2022/07/31 00:11:12;;;;;;;6.13;2.08;;;;;;;-145.69;100.00;71480.00;5070679;28;20202;-79
2022/07/31 00:13:39;;;;;;;4.40;2.13;;;;;;;-145.69;100.00;71476.03;5070011;28;20234;-79
2022/07/31 00:16:06;;;;;;;5.40;2.20;;;;;;;-145.69;100.00;71462.09;5072889;28;20205;-79
2022/07/31 00:18:35;;;;;;;1.77;1.60;;;;;;;-145.69;100.00;71462.09;5072619;28;20222;-78
2022/07/31 00:21:05;;;;;;;3.25;1.88;;;;;;;-145.69;100.00;71460.09;5072715;28;20210;-78
2022/07/31 00:23:39;;;;;;;6.60;2.10;;;;;;;-145.69;100.00;71497.91;5072243;28;20434;-79
2022/07/31 00:26:06;;;;;;;2.87;2.00;;;;;;;-145.69;100.00;71501.88;5072666;28;20297;-79
2022/07/31 00:28:36;;;;;;;2.28;2.03;;;;;;;-145.69;100.00;71525.78;5072554;28;20201;-79
2022/07/31 00:31:04;;;;;;;4.55;1.90;;;;;;;-145.69;100.00;71537.72;5072720;28;20239;-78
2022/07/31 00:33:32;;;;;;;3.97;1.80;;;;;;;-145.69;100.00;71535.72;5072624;28;20199;-79
2022/07/31 00:35:59;;;;;;;6.37;2.20;;;;;;;-145.69;100.00;71527.75;5072730;28;20202;-79
2022/07/31 00:38:25;;;;;;;6.47;2.10;;;;;;;-145.69;100.00;71515.81;5072485;28;20226;-79
2022/07/31 00:40:52;;;;;;;5.43;2.37;;;;;;;-145.69;100.00;71525.78;5072524;28;20203;-79
2022/07/31 00:43:19;;;;;;;2.17;1.97;;;;;;;-145.69;100.00;71515.81;5072647;28;20577;-78
2022/07/31 00:45:46;;;;;;;3.70;2.03;;;;;;;-145.69;100.00;71513.81;5072636;28;20198;-79
2022/07/31 00:48:13;;;;;;;3.15;2.10;;;;;;;-145.69;100.00;71525.78;5072450;28;20252;-79
2022/07/31 00:50:41;;;;;;;5.83;2.07;;;;;;;-145.69;100.00;71511.84;5072324;28;20231;-79
2022/07/31 00:53:07;;;;;;;11.67;2.00;;;;;;;-145.69;100.00;71507.84;5072456;28;20210;-79
2022/07/31 00:55:34;;;;;;;4.27;2.20;;;;;;;-145.69;100.00;71493.94;5072298;28;20205;-79
2022/07/31 00:58:00;;;;;;;4.83;1.87;;;;;;;-145.69;100.00;71485.97;5072495;28;20234;-79
2022/07/31 01:00:26;;;;;;;5.77;2.00;;;;;;;-145.69;100.00;71493.94;5071224;28;20199;-79
2022/07/31 01:02:55;;;;;;;3.17;1.60;;;;;;;-145.69;100.00;71499.91;5072422;28;20371;-78
2022/07/31 01:05:22;;;;;;;2.30;1.87;;;;;;;-145.69;100.00;71480.00;5072322;28;20224;-78
2022/07/31 01:07:50;;;;;;;4.77;1.90;;;;;;;-145.69;100.00;71485.97;5071914;28;20304;-79
2022/07/31 01:10:25;;;;;;;3.90;1.90;;;;;;;-145.69;100.00;71483.97;5072474;28;20225;-78
2022/07/31 01:12:56;;;;;;;6.30;1.97;;;;;;;-145.69;100.00;71511.84;5072194;28;20560;-79
2022/07/31 01:15:24;;;;;;;3.03;1.90;;;;;;;-145.69;100.00;71535.72;5072331;28;20203;-79
2022/07/31 01:21:19;;;;;;;3.23;2.17;;;;;;;-145.69;100.00;71537.72;5071302;28;20194;-79
2022/07/31 01:24:04;;;;;;;3.57;2.00;;;;;;;-145.69;100.00;71493.94;5075005;28;20649;-79
2022/07/31 01:26:41;;;;;;;5.83;2.20;;;;;;;-145.69;100.00;71470.06;5058147;28;20195;-79
2022/07/31 01:29:15;;;;;;;5.67;1.70;;;;;;;-145.69;100.00;71452.16;5073722;28;20244;-78
2022/07/31 01:31:45;;;;;;;2.05;1.60;;;;;;;-145.69;100.00;71468.06;5074521;28;20202;-79
2022/07/31 01:34:19;;;;;;;3.50;2.17;;;;;;;-145.69;100.00;71478.00;5075363;28;20228;-79
2022/07/31 01:36:48;;;;;;;3.55;2.00;;;;;;;-145.69;100.00;71462.09;5075034;28;20202;-79
2022/07/31 01:39:16;;;;;;;4.32;2.10;;;;;;;-145.69;100.00;71478.00;5074911;28;20612;-78
2022/07/31 01:41:47;;;;;;;5.10;1.90;;;;;;;-145.69;100.00;71493.94;5074408;28;20242;-79
2022/07/31 01:44:17;;;;;;;3.03;1.60;;;;;;;-145.69;100.00;71480.00;5075321;28;20672;-79
2022/07/31 01:46:45;;;;;;;3.33;1.80;;;;;;;-145.69;100.00;71442.19;5074650;28;20211;-78
2022/07/31 01:49:13;;;;;;;2.40;1.50;;;;;;;-145.69;100.00;71422.28;5074994;28;20268;-78
2022/07/31 01:51:43;;;;;;;2.10;1.80;;;;;;;-145.69;100.00;71432.25;5075025;28;20211;-79
2022/07/31 01:54:11;;;;;;;4.07;1.65;;;;;;;-145.69;100.00;71420.31;5074264;28;20210;-79
2022/07/31 01:56:38;;;;;;;4.28;1.90;;;;;;;-145.69;100.00;71420.31;5074009;28;20202;-79
2022/07/31 01:59:06;;;;;;;2.05;1.60;;;;;;;-145.69;100.00;71430.25;5074468;28;20214;-79
2022/07/31 02:01:34;;;;;;;3.53;1.80;;;;;;;-145.69;100.00;71452.16;5074244;28;20236;-79
2022/07/31 02:04:02;;;;;;;4.75;1.70;;;;;;;-145.69;100.00;71454.13;5074822;28;20199;-79
2022/07/31 02:06:29;;;;;;;4.68;1.73;;;;;;;-145.69;100.00;71466.06;5073711;28;20672;-79
2022/07/31 02:08:56;;;;;;;9.83;2.40;;;;;;;-145.69;100.00;71474.03;5074435;28;20657;-78
2022/07/31 02:11:23;;;;;;;2.20;1.80;;;;;;;-145.69;100.00;71472.03;5074001;28;20202;-79
2022/07/31 02:13:52;;;;;;;5.50;1.83;;;;;;;-145.69;100.00;71487.97;5074846;28;20558;-79
2022/07/31 02:16:20;;;;;;;6.73;2.07;;;;;;;-145.69;100.00;71458.09;5074712;28;20297;-79
2022/07/31 02:18:50;;;;;;;3.63;1.70;;;;;;;-145.69;100.00;71468.06;5074696;28;20326;-78
2022/07/31 02:21:17;;;;;;;3.40;1.90;;;;;;;-145.69;100.00;71478.00;5074642;28;20207;-79
2022/07/31 02:23:44;;;;;;;3.85;1.77;;;;;;;-145.69;100.00;71470.06;5074380;28;20653;-79
2022/07/31 02:26:11;;;;;;;5.07;1.83;;;;;;;-145.69;100.00;71466.06;5074699;28;20199;-79
2022/07/31 02:28:41;;;;;;;4.68;1.85;;;;;;;-145.69;100.00;71462.09;5074647;28;20202;-79
2022/07/31 02:31:11;;;;;;;3.17;1.50;;;;;;;-145.69;100.00;71458.09;5074563;28;20199;-79
2022/07/31 02:33:40;;;;;;;5.95;2.25;;;;;;;-145.69;100.00;71474.03;5074107;28;20195;-79
2022/07/31 02:36:09;;;;;;;4.00;2.10;;;;;;;-145.69;100.00;71474.03;5074062;28;20202;-78
2022/07/31 02:38:37;;;;;;;1.65;1.48;;;;;;;-145.69;100.00;71458.09;5073490;28;20313;-79
2022/07/31 02:41:04;;;;;;;2.40;1.65;;;;;;;-145.69;100.00;71434.22;5072467;28;20205;-79
2022/07/31 02:43:33;;;;;;;2.60;1.67;;;;;;;-145.69;100.00;71416.31;5072446;28;20202;-79
2022/07/31 02:46:01;;;;;;;3.97;1.50;;;;;;;-145.69;100.00;71420.31;5072885;28;20438;-79
2022/07/31 02:48:28;;;;;;;1.85;1.50;;;;;;;-145.69;100.00;71418.31;5073998;28;20202;-79
2022/07/31 02:50:55;;;;;;;3.72;1.65;;;;;;;-145.69;99.34;71412.34;5073845;28;20230;-79
2022/07/31 02:53:24;;;;;;;1.60;1.30;;;;;;;-145.69;100.00;71422.28;5073941;28;20199;-79
2022/07/31 02:55:51;;;;;;;4.25;1.90;;;;;;;-145.69;100.00;71432.25;5074023;28;20198;-79
2022/07/31 02:58:18;;;;;;;4.97;1.75;;;;;;;-145.69;100.00;71442.19;5074016;28;20249;-79
2022/07/31 03:00:45;;;;;;;2.22;1.80;;;;;;;-145.69;100.00;71452.16;5073798;28;20290;-79
2022/07/31 03:03:12;;;;;;;3.58;1.73;;;;;;;-145.69;100.00;71450.16;5073774;28;20199;-79
2022/07/31 03:05:38;;;;;;;2.63;1.70;;;;;;;-145.69;100.00;71466.06;5073624;28;20614;-79
2022/07/31 03:08:05;;;;;;;1.80;1.37;;;;;;;-145.69;100.00;71482.00;5073844;28;20194;-79
2022/07/31 03:10:33;;;;;;;4.03;1.70;;;;;;;-145.69;100.00;71466.06;5073135;28;20217;-79
2022/07/31 03:13:01;;;;;;;3.17;1.70;;;;;;;-145.69;100.00;71462.09;5073369;28;20195;-79
2022/07/31 03:15:30;;;;;;;3.70;1.70;;;;;;;-145.69;100.00;71466.06;5073730;28;20680;-79
2022/07/31 03:17:58;;;;;;;3.75;1.67;;;;;;;-145.69;100.00;71464.09;5073370;28;20309;-79
2022/07/31 03:20:26;;;;;;;3.20;1.47;;;;;;;-145.69;100.00;71470.06;5071392;28;20844;-79
2022/07/31 03:22:52;;;;;;;3.78;1.63;;;;;;;-145.69;100.00;71474.03;5055740;28;20202;-79
2022/07/31 03:25:19;;;;;;;3.03;1.63;;;;;;;-145.69;100.00;71483.97;5053495;28;20253;-79
2022/07/31 03:27:48;;;;;;;7.63;1.50;;;;;;;-145.69;100.00;71485.97;5053345;28;20199;-79
2022/07/31 03:30:17;;;;;;;1.95;1.75;;;;;;;-145.69;100.00;71491.94;5053253;28;20207;-79
2022/07/31 03:32:44;;;;;;;3.53;1.73;;;;;;;-145.69;100.00;71505.88;5053330;28;20203;-77
2022/07/31 03:35:11;;;;;;;3.87;2.00;;;;;;;-145.69;100.00;71493.94;5053543;28;20199;-78
2022/07/31 03:37:37;;;;;;;3.30;1.70;;;;;;;-145.69;100.00;71503.88;5053231;28;20219;-79
2022/07/31 03:40:05;;;;;;;3.33;1.70;;;;;;;-145.69;100.00;71493.94;5064215;28;20206;-79
2022/07/31 03:42:32;;;;;;;1.90;1.60;;;;;;;-145.69;100.00;71485.97;5073171;28;20195;-79
2022/07/31 03:45:01;;;;;;;3.87;1.70;;;;;;;-145.69;100.00;71482.00;5072206;28;20199;-78
2022/07/31 03:47:27;;;;;;;5.00;1.65;;;;;;;-145.69;100.00;71495.91;5072925;28;20244;-79
2022/07/31 03:49:54;;;;;;;2.73;1.70;;;;;;;-145.69;100.00;71505.88;5072618;28;20237;-79
2022/07/31 03:52:21;;;;;;;2.50;1.50;;;;;;;-145.69;100.00;71485.97;5073110;28;20195;-79
2022/07/31 03:54:47;;;;;;;3.30;1.87;;;;;;;-145.69;100.00;71495.91;5073040;28;20298;-78
2022/07/31 03:57:15;;;;;;;1.90;1.50;;;;;;;-145.69;100.00;71529.75;5072909;28;20619;-78
2022/07/31 03:59:42;;;;;;;3.83;2.00;;;;;;;-145.69;100.00;71557.59;5072583;28;20226;-79
2022/07/31 04:02:10;;;;;;;4.03;2.00;;;;;;;-145.69;100.00;71535.72;5066875;28;20293;-79
2022/07/31 04:04:37;;;;;;;3.60;1.80;;;;;;;-145.69;100.00;71527.75;5069749;28;20760;-79
2022/07/31 04:07:04;;;;;;;1.97;1.67;;;;;;;-145.69;100.00;71523.78;5072610;28;20199;-79
2022/07/31 04:09:31;;;;;;;2.07;1.40;;;;;;;-145.69;100.00;71509.84;5072835;28;20244;-79
2022/07/31 04:11:57;;;;;;;2.33;1.83;;;;;;;-145.69;100.00;71513.81;5072919;28;20199;-79
2022/07/31 04:14:24;;;;;;;2.93;1.50;;;;;;;-145.69;100.00;71507.84;5072495;28;20218;-77
2022/07/31 04:16:51;;;;;;;6.50;1.70;;;;;;;-145.69;100.00;71507.84;5072880;28;20199;-79
2022/07/31 04:19:18;;;;;;;6.33;1.73;;;;;;;-145.69;100.00;71487.97;5070595;28;20469;-79
2022/07/31 04:21:45;;;;;;;1.93;1.43;;;;;;;-145.69;100.00;71474.03;5072176;28;20210;-79
2022/07/31 04:24:15;;;;;;;2.57;1.53;;;;;;;-145.69;100.00;71485.97;5072348;28;20668;-79
2022/07/31 04:26:42;;;;;;;3.83;1.70;;;;;;;-145.69;100.00;71489.94;5072231;28;20225;-79
2022/07/31 04:29:08;;;;;;;5.28;1.60;;;;;;;-145.69;100.00;71478.00;5071902;28;20445;-79
2022/07/31 04:31:35;;;;;;;5.33;1.87;;;;;;;-145.69;100.00;71478.00;5072205;28;20198;-79
2022/07/31 04:34:02;;;;;;;6.67;1.87;;;;;;;-145.69;100.00;71487.97;5072171;28;20198;-79
2022/07/31 04:36:30;;;;;;;2.20;1.60;;;;;;;-145.69;100.00;71480.00;5072397;28;20198;-79
2022/07/31 04:38:56;;;;;;;3.37;1.50;;;;;;;-145.69;100.00;71456.13;5072203;28;20589;-79
2022/07/31 04:41:23;;;;;;;3.23;1.50;;;;;;;-145.69;100.00;71454.13;5072272;28;20217;-79
2022/07/31 04:43:49;;;;;;;7.53;1.80;;;;;;;-145.69;100.00;71434.22;5072621;28;20195;-79
2022/07/31 04:46:15;;;;;;;2.53;1.67;;;;;;;-145.69;100.00;71430.25;5072492;28;20585;-79
2022/07/31 04:48:42;;;;;;;3.93;1.30;;;;;;;-145.69;100.00;71424.28;5072567;28;20207;-79
2022/07/31 04:51:08;;;;;;;3.10;1.50;;;;;;;-145.69;100.00;71414.34;5072020;28;20227;-79
2022/07/31 04:53:37;;;;;;;4.25;1.60;;;;;;;-145.69;100.00;71418.31;5071925;28;20284;-79
2022/07/31 04:58:49;;;;;;;3.85;1.65;;;;;;;-145.69;99.50;71392.44;5075600;28;20272;-79
2022/07/31 05:01:15;;;;;;;2.55;1.50;;;;;;;-145.69;100.00;71394.44;5076147;28;20210;-79
2022/07/31 05:03:41;;;;;;;2.25;1.50;;;;;;;-145.69;100.00;71398.41;5076161;28;20202;-79
2022/07/31 05:06:12;;;;;;;5.38;1.40;;;;;;;-145.69;100.00;71380.50;5076084;28;20664;-79
2022/07/31 05:08:40;;;;;;;2.58;1.60;;;;;;;-145.69;100.00;71370.56;5076130;28;20294;-79
2022/07/31 05:11:22;;;;;;;2.00;1.38;;;;;;;-145.69;100.00;71364.59;5075868;28;20198;-79
2022/07/31 05:13:49;;;;;;;2.05;1.63;;;;;;;-145.69;100.00;71358.63;5062117;28;20212;-79
2022/07/31 05:16:16;;;;;;;2.15;1.52;;;;;;;-145.69;100.00;71374.53;5055791;28;20199;-79
2022/07/31 05:18:44;;;;;;;2.28;1.55;;;;;;;-145.69;100.00;71362.59;5057533;28;20223;-79
2022/07/31 05:21:10;;;;;;;4.40;1.48;;;;;;;-145.69;100.00;71346.69;5075712;28;20229;-79
2022/07/31 05:23:37;;;;;;;2.42;1.40;;;;;;;-145.69;100.00;71338.72;5074480;28;20234;-79
2022/07/31 05:26:05;;;;;;;2.22;1.50;;;;;;;-145.69;100.00;71320.81;5075083;28;20229;-79
2022/07/31 05:28:32;;;;;;;4.88;1.40;;;;;;;-145.69;100.00;71332.75;5075387;28;20241;-79
2022/07/31 05:30:59;;;;;;;3.35;1.58;;;;;;;-145.69;100.00;71322.81;5075076;28;20187;-79
2022/07/31 05:33:26;;;;;;;6.05;1.45;;;;;;;-145.69;100.00;71322.81;5074792;28;20202;-79
2022/07/31 05:35:52;;;;;;;1.98;1.40;;;;;;;-145.69;100.00;71314.84;5074930;28;20202;-79
2022/07/31 05:38:21;;;;;;;4.82;1.65;;;;;;;-145.69;100.00;71324.78;5074752;28;20305;-79
2022/07/31 05:40:47;;;;;;;2.50;1.50;;;;;;;-145.69;100.00;71330.75;5075460;28;20195;-80
2022/07/31 05:43:15;;;;;;;2.75;1.30;;;;;;;-145.69;100.00;71310.84;5075452;28;20224;-79
2022/07/31 05:45:42;;;;;;;3.47;1.48;;;;;;;-145.69;100.00;71292.94;5074031;28;20202;-80
2022/07/31 05:48:08;;;;;;;3.47;1.60;;;;;;;-145.69;100.00;71259.13;5073969;28;20680;-80
2022/07/31 05:50:35;;;;;;;2.08;1.33;;;;;;;-145.69;99.78;71197.44;5075044;28;20893;-80
2022/07/31 05:53:01;;;;;;;2.88;1.48;;;;;;;-145.69;96.36;71133.78;5075157;28;20202;-80
2022/07/31 05:55:28;;;;;;;1.63;1.30;;;;;;;-145.69;90.99;71119.84;5075142;28;20209;-80
2022/07/31 05:57:54;;;;;;;1.45;1.20;;;;;;;-145.69;90.57;71117.84;5075095;28;20214;-79
2022/07/31 06:00:23;;;;;;;3.10;1.63;;;;;;;-145.69;91.18;71092.00;5073026;28;20713;-79
2022/07/31 06:02:49;;;;;;;3.53;1.17;;;;;;;-145.69;97.04;71084.03;5074661;28;20635;-80
2022/07/31 06:05:16;;;;;;;1.80;0.93;;;;;;;-145.69;90.73;71072.09;5074893;28;20199;-79
2022/07/31 06:07:43;;;;;;;1.80;1.20;;;;;;;-145.69;87.09;71036.28;5074271;28;20194;-79
2022/07/31 06:10:10;;;;;;;1.15;1.05;;;;;;;-145.69;86.26;71002.44;5075048;28;20207;-80
2022/07/31 06:12:36;;;;;;;3.53;1.17;;;;;;;-145.69;90.78;71000.47;5074658;28;20202;-79
2022/07/31 06:15:03;;;;;;;1.05;0.98;;;;;;;-145.69;88.46;70982.56;5074754;28;20207;-80
2022/07/31 06:17:31;;;;;;;2.58;1.27;;;;;;;-145.69;84.95;70980.56;5074887;28;20202;-79
2022/07/31 06:19:57;;;;;;;2.63;1.25;;;;;;;-145.69;83.23;70968.63;5074764;28;20230;-80
2022/07/31 06:22:24;;;;;;;1.23;1.13;;;;;;;-145.69;81.86;70970.63;5074656;28;20820;-79
2022/07/31 06:24:52;;;;;;;2.15;1.10;;;;;;;-145.69;82.84;70964.66;5074579;28;20198;-79
2022/07/31 06:27:19;;;;;;;2.67;1.23;;;;;;;-145.69;85.13;70974.59;5074502;28;20202;-80
2022/07/31 06:29:45;;;;;;;1.92;1.13;;;;;;;-145.69;84.31;70968.63;5074485;28;20233;-79
2022/07/31 06:32:12;;;;;;;3.15;1.27;;;;;;;-145.69;86.66;71006.44;5074365;28;20221;-79
2022/07/31 06:34:40;;;;;;;1.45;1.10;;;;;;;-145.69;86.20;70996.47;5074465;28;20205;-79
2022/07/31 06:37:06;;;;;;;1.42;1.23;;;;;;;-145.69;85.04;70980.56;5074270;28;20210;-79
2022/07/31 06:39:33;;;;;;;1.40;1.15;;;;;;;-145.69;82.86;70950.72;5074251;28;20338;-79
2022/07/31 06:42:01;;;;;;;4.60;1.38;;;;;;;-145.69;83.16;70968.63;5074154;28;20198;-79
2022/07/31 06:44:28;;;;;;;3.70;1.27;;;;;;;-145.69;84.52;70992.50;5074122;28;20293;-79
2022/07/31 06:46:55;;;;;;;1.55;1.20;;;;;;;-145.69;83.88;70990.50;5074196;28;20198;-79
2022/07/31 06:49:21;;;;;;;3.58;1.38;;;;;;;-145.69;84.85;71004.44;5074076;28;20235;-79
2022/07/31 06:51:49;;;;;;;5.22;0.98;;;;;;;-145.69;86.51;71004.44;5074032;28;20195;-79
2022/07/31 06:54:15;;;;;;;4.03;1.35;;;;;;;-145.69;84.92;70984.53;5074059;28;20260;-79
2022/07/31 06:56:42;;;;;;;3.33;1.10;;;;;;;-145.69;86.43;70956.69;5073741;28;20199;-79
2022/07/31 06:59:08;;;;;;;1.73;1.17;;;;;;;-145.69;82.04;70912.91;5073920;28;20219;-79
2022/07/31 07:01:35;;;;;;;2.30;1.00;;;;;;;-145.69;75.94;70853.22;5073504;28;20198;-79
2022/07/31 07:04:02;;;;;;;3.55;1.30;;;;;;;-145.69;75.61;70797.53;5073913;28;20199;-79
2022/07/31 07:06:29;;;;;;;2.45;1.23;;;;;;;-145.69;78.87;70753.75;5073610;28;20577;-79
2022/07/31 07:08:56;;;;;;;1.92;1.13;;;;;;;-145.69;72.98;70711.97;5073790;28;20226;-79
2022/07/31 07:11:23;;;;;;;5.90;1.02;;;;;;;-145.69;58.84;70670.19;5073520;28;20210;-79
2022/07/31 07:13:50;;;;;;;2.33;1.20;;;;;;;-145.69;63.18;70654.28;5073872;28;20573;-79
2022/07/31 07:16:16;;;;;;;1.75;0.90;;;;;;;-145.69;57.43;70624.44;5073855;28;20220;-80
2022/07/31 07:18:43;;;;;;;2.00;1.20;;;;;;;-145.69;54.43;70600.56;5073551;28;20253;-79
2022/07/31 07:21:10;;;;;;;1.30;0.85;;;;;;;-145.69;53.36;70576.69;5066546;28;20540;-80
2022/07/31 07:23:37;;;;;;;1.58;1.15;;;;;;;-145.69;57.33;70538.88;5061894;28;20194;-79
2022/07/31 07:26:05;;;;;;;4.28;1.40;;;;;;;-145.69;53.34;70550.81;5073514;28;20202;-80
2022/07/31 07:28:31;;;;;;;4.00;1.35;;;;;;;-145.69;51.85;70554.81;5072822;28;20202;-79
2022/07/31 07:30:57;;;;;;;3.05;1.02;;;;;;;-145.69;54.09;70562.75;5071388;28;20199;-79
2022/07/31 07:33:24;;;;;;;4.95;1.52;;;;;;;-145.69;55.62;70540.88;5072101;28;20199;-80
2022/07/31 07:35:50;;;;;;;3.20;1.15;;;;;;;-145.69;54.04;70532.91;5072389;28;20586;-81
2022/07/31 07:38:17;;;;;;;3.42;1.00;;;;;;;-145.69;54.43;70526.94;5073077;28;20207;-79
2022/07/31 07:40:44;;;;;;;6.20;1.75;;;;;;;-145.69;53.71;70501.09;5073008;28;20299;-79
2022/07/31 07:43:12;;;;;;;2.22;1.10;;;;;;;-145.69;52.57;70485.16;5072825;28;20229;-80
2022/07/31 07:45:39;;;;;;;4.10;1.38;;;;;;;-145.69;52.36;70475.22;5072539;28;20571;-79
2022/07/31 07:48:06;;;;;;;1.80;1.20;;;;;;;-145.69;53.70;70459.31;5072599;28;20237;-80
2022/07/31 07:50:32;;;;;;;1.92;0.90;;;;;;;-145.69;54.51;70445.38;5072346;28;20234;-79
2022/07/31 07:52:59;;;;;;;1.42;1.10;;;;;;;-145.69;50.38;70455.34;5072151;28;20195;-79
2022/07/31 07:55:26;;;;;;;1.92;1.20;;;;;;;-145.69;48.75;70451.34;5072831;28;20616;-79
2022/07/31 07:57:52;;;;;;;2.08;1.17;;;;;;;-145.69;47.82;70417.53;5072522;28;20628;-79
2022/07/31 08:00:20;;;;;;;2.58;1.40;;;;;;;-145.69;51.38;70405.59;5072088;28;20229;-79
2022/07/31 08:02:48;;;;;;;4.20;1.20;;;;;;;-145.69;48.50;70409.56;5072557;28;20195;-78
2022/07/31 08:05:15;;;;;;;2.83;1.10;;;;;;;-145.69;47.45;70407.59;5071098;28;20282;-77
2022/07/31 08:07:42;;;;;;;3.92;1.33;;;;;;;-145.69;45.99;70443.41;5071942;28;20202;-79
2022/07/31 08:10:09;;;;;;;1.50;1.38;;;;;;;-145.69;48.29;70437.44;5072614;28;20202;-78
2022/07/31 08:12:36;;;;;;;7.18;1.23;;;;;;;-145.69;46.03;70417.53;5072493;28;20206;-78
2022/07/31 08:15:08;;;;;;;2.53;1.40;;;;;;;-145.69;47.72;70405.59;5072621;28;20202;-78
2022/07/31 08:17:36;;;;;;;2.53;1.30;;;;;;;-145.69;45.13;70405.59;5072653;28;20207;-77
2022/07/31 08:20:03;;;;;;;3.88;1.02;;;;;;;-145.69;47.84;70385.69;5072497;28;20229;-75
2022/07/31 08:22:29;;;;;;;3.72;1.13;;;;;;;-145.69;43.96;70377.75;5065875;28;20198;-78
2022/07/31 08:24:56;;;;;;;2.63;1.02;;;;;;;-145.69;44.75;70383.72;5052873;28;20269;-78
2022/07/31 08:27:26;;;;;;;3.85;1.20;;;;;;;-145.69;45.47;70349.91;5052416;28;20238;-78
2022/07/31 08:29:55;;;;;;;1.75;1.10;;;;;;;-145.69;44.09;70361.84;5052635;28;20199;-78
2022/07/31 08:32:22;;;;;;;1.73;1.08;;;;;;;-145.69;43.25;70363.81;5062607;28;20197;-78
2022/07/31 08:34:51;;;;;;;3.22;1.35;;;;;;;-145.69;43.65;70377.75;5076351;28;20199;-77
2022/07/31 08:37:18;;;;;;;1.58;1.10;;;;;;;-145.69;44.09;70373.78;5076330;28;20214;-78
2022/07/31 08:39:45;;;;;;;2.35;1.00;;;;;;;-145.69;42.07;70363.81;5076297;28;20322;-78
2022/07/31 08:42:11;;;;;;;2.78;1.00;;;;;;;-145.69;43.00;70322.03;5076469;28;20289;-78
2022/07/31 08:44:39;;;;;;;1.70;1.10;;;;;;;-145.69;39.94;70310.09;5076169;28;20195;-78
2022/07/31 08:47:06;;;;;;;1.35;1.00;;;;;;;-145.69;40.04;70282.25;5076300;28;20202;-78
2022/07/31 08:49:36;;;;;;;1.90;1.10;;;;;;;-145.69;46.59;70230.53;5076251;28;20705;-78
2022/07/31 08:52:05;;;;;;;4.72;1.30;;;;;;;-145.69;42.38;70188.75;5074377;28;20199;-78
2022/07/31 08:54:34;;;;;;;3.33;0.95;;;;;;;-145.69;41.75;70152.97;5076123;28;20565;-78
2022/07/31 08:57:00;;;;;;;3.50;1.15;;;;;;;-145.69;39.55;70145.00;5076166;28;20221;-77
2022/07/31 08:59:29;;;;;;;7.50;1.25;;;;;;;-145.69;39.47;70152.97;5075876;28;20222;-77
2022/07/31 09:01:57;;;;;;;4.47;1.13;;;;;;;-145.69;41.57;70204.69;5075662;28;20199;-77
2022/07/31 09:04:23;;;;;;;3.42;1.27;;;;;;;-145.69;41.45;70220.59;5076039;28;20205;-77
2022/07/31 09:06:50;;;;;;;2.25;1.00;;;;;;;-145.69;41.52;70256.41;5075972;28;20199;-78
2022/07/31 09:09:18;;;;;;;4.80;1.42;;;;;;;-145.69;40.50;70248.44;5076004;28;20543;-78
2022/07/31 09:11:49;;;;;;;2.80;1.10;;;;;;;-145.69;41.16;70244.47;5074978;28;20449;-78
2022/07/31 09:14:25;;;;;;;1.85;1.15;;;;;;;-145.69;40.56;70196.72;5075337;28;20199;-77
2022/07/31 09:16:53;;;;;;;1.42;1.00;;;;;;;-145.69;41.31;70053.50;5075911;28;20203;-78
2022/07/31 09:19:20;;;;;;;6.32;1.48;;;;;;;-145.69;40.26;70009.72;5074637;28;20199;-79
2022/07/31 09:21:47;;;;;;;1.48;1.00;;;;;;;-145.69;38.65;69962.00;5075072;28;20226;-78
2022/07/31 09:24:27;;;;;;;2.75;1.10;;;;;;;-145.69;37.43;70053.50;5075131;28;20201;-78
2022/07/31 09:27:02;;;;;;;3.08;1.10;;;;;;;-145.69;38.82;70117.16;5065055;28;20203;-78
2022/07/31 09:29:34;;;;;;;2.70;1.00;;;;;;;-145.69;39.52;70164.88;5054796;28;20687;-78
2022/07/31 09:32:07;;;;;;;2.72;1.00;;;;;;;-145.69;39.83;70154.94;5055116;28;20290;-78
2022/07/31 09:34:34;;;;;;;4.85;1.30;;;;;;;-145.69;41.73;70212.63;5055497;28;20210;-78
2022/07/31 09:37:08;;;;;;;1.70;1.10;;;;;;;-145.69;41.42;70166.88;5070621;28;20198;-79
2022/07/31 09:39:35;;;;;;;2.92;1.00;;;;;;;-145.69;40.41;70152.97;5075502;28;20219;-81
2022/07/31 09:42:03;;;;;;;4.70;0.90;;;;;;;-145.69;39.97;70099.25;5074073;28;20202;-77
2022/07/31 09:44:36;;;;;;;3.30;0.93;;;;;;;-145.69;41.21;70097.25;5074435;28;20248;-78
2022/07/31 09:47:02;;;;;;;3.28;1.13;;;;;;;-145.69;38.49;70073.38;5074374;28;20209;-78
2022/07/31 09:49:32;;;;;;;1.67;1.05;;;;;;;-145.69;40.07;70021.66;5073677;28;20235;-78
2022/07/31 09:51:59;;;;;;;2.67;0.98;;;;;;;-145.69;37.75;70021.66;5075434;28;20202;-77
2022/07/31 09:54:28;;;;;;;2.83;1.15;;;;;;;-145.69;37.91;70053.50;5075330;28;20210;-78
2022/07/31 09:56:55;;;;;;;3.53;1.10;;;;;;;-145.69;38.51;70164.88;5075296;28;20203;-78
2022/07/31 09:59:25;;;;;;;2.80;1.08;;;;;;;-145.69;39.78;70125.09;5074910;28;20661;-78
2022/07/31 10:01:52;;;;;;;3.13;0.90;;;;;;;-145.69;40.47;70113.16;5074692;28;20565;-77
2022/07/31 10:04:20;;;;;;;3.03;0.93;;;;;;;-145.69;39.19;70158.94;5067631;28;20205;-78
2022/07/31 10:06:48;;;;;;;4.72;1.08;;;;;;;-145.69;39.43;70143.00;5070296;28;20203;-80
2022/07/31 10:09:17;;;;;;;3.15;1.02;;;;;;;-145.69;40.58;70115.16;5071492;28;20289;-78
2022/07/31 10:11:45;;;;;;;2.95;1.25;;;;;;;-145.69;40.60;70065.44;5074802;28;20198;-79
2022/07/31 10:14:22;;;;;;;3.38;1.30;;;;;;;-145.69;40.52;69985.88;5074580;28;20202;-80
2022/07/31 10:16:54;;;;;;;27.70;1.30;;;;;;;-145.69;39.84;69977.91;5074722;28;20595;-79
2022/07/31 10:19:22;;;;;;;3.03;1.10;;;;;;;-145.69;37.97;69983.88;5074821;28;20203;-78
2022/07/31 10:21:54;;;;;;;1.10;0.70;;;;;;;-145.69;37.39;69918.22;5074806;28;20198;-77
2022/07/31 10:24:23;;;;;;;7.20;1.27;;;;;;;-145.69;37.73;69956.03;5074345;28;20199;-77
2022/07/31 10:26:50;;;;;;;1.20;0.98;;;;;;;-145.69;37.55;69973.94;5074296;28;20203;-77
2022/07/31 10:29:17;;;;;;;1.65;0.88;;;;;;;-145.69;37.60;69993.81;5073830;28;20584;-78
2022/07/31 10:31:45;;;;;;;1.80;0.95;;;;;;;-145.69;38.02;70005.75;5074465;28;20207;-77
2022/07/31 10:34:14;;;;;;;3.55;1.10;;;;;;;-145.69;41.97;70035.59;5074013;28;20195;-81
2022/07/31 10:36:42;;;;;;;1.52;1.00;;;;;;;-145.69;37.91;70039.56;5073806;28;20199;-77
2022/07/31 10:39:15;;;;;;;4.68;1.20;;;;;;;-145.69;37.91;70073.38;5073400;28;20385;-80
2022/07/31 10:41:49;;;;;;;2.58;1.02;;;;;;;-145.69;38.32;70005.75;5073570;28;20226;-78
2022/07/31 10:44:22;;;;;;;9.82;1.25;;;;;;;-145.69;38.65;69973.94;5073829;28;20195;-79
2022/07/31 10:46:49;;;;;;;2.40;1.10;;;;;;;-145.69;39.27;69926.19;5074183;28;20206;-79
2022/07/31 10:49:17;;;;;;;2.00;1.10;;;;;;;-145.69;37.70;69920.22;5073178;28;20547;-81
2022/07/31 10:51:48;;;;;;;2.08;1.23;;;;;;;-145.69;37.60;69866.50;5073404;28;20565;-83
2022/07/31 10:54:14;;;;;;;2.80;1.15;;;;;;;-145.69;37.83;69844.63;5073371;28;20267;-85
2022/07/31 10:56:43;;;;;;;2.42;1.10;;;;;;;-145.69;37.65;69777.00;5073562;28;20692;-82
2022/07/31 10:59:11;;;;;;;3.60;1.38;;;;;;;-145.69;36.28;69822.75;5073776;28;20197;-82
2022/07/31 11:01:46;;;;;;;3.08;1.00;;;;;;;-145.69;36.48;69788.94;5072730;28;20234;-81
2022/07/31 11:04:13;;;;;;;3.88;1.00;;;;;;;-145.69;35.53;69832.69;5073192;28;20236;-81
2022/07/31 11:06:43;;;;;;;4.03;1.10;;;;;;;-145.69;36.62;69862.53;5073484;28;20209;-80
2022/07/31 11:09:09;;;;;;;1.08;0.77;;;;;;;-145.69;35.37;69938.13;5073570;28;20206;-82
2022/07/31 11:11:37;;;;;;;2.65;1.10;;;;;;;-145.69;36.16;69884.41;5073735;28;20206;-79
2022/07/31 11:14:03;;;;;;;1.95;0.93;;;;;;;-145.69;34.71;69924.19;5057610;28;20199;-82
2022/07/31 11:16:30;;;;;;;1.33;0.88;;;;;;;-145.69;34.67;69938.13;5059224;28;20203;-81
2022/07/31 11:18:57;;;;;;;5.07;1.00;;;;;;;-145.69;35.64;69958.00;5070174;28;20225;-78
2022/07/31 11:21:31;;;;;;;2.35;0.88;;;;;;;-145.69;36.45;69985.88;5076216;28;20623;-77
2022/07/31 11:23:59;;;;;;;2.25;1.00;;;;;;;-145.69;36.57;69969.94;5068004;28;20452;-79